Airfield :







YOU CAN JOIN US ON...

 
LOGIN :

Register | Disclaimer

   EN    FR    IT 

 









Legend :    VFR   Marginal VFR   IFR   Intensive IFR   Very Intensive IFR
Visi :
Ceiling :
>= 8 km
>= 3000ft
5 to 8 km
1000 to 3000 ft
1500m to 5 km
500 to 1000 ft
800 to 1500m
200 to 500 ft
< 800m
< 200 ft
Symbols :   Thunderstorms  Fog  Heavy snow  Heavy precipitations  Wind > 20 kt






- Airport Elevation : 626 ft


KCAR - Caribou Municipal

CURRENT METAR :
  • 150954Z AUTO 18012KT 9SM FEW003 BKN016 OVC050 08/07 A2881 RMK AO2 RAE40 SLP760 P0001 T00830072

EXPIRED METARs :
  • 150949Z AUTO 18014KT 7SM FEW004 BKN011 OVC050 08/07 A2881 RMK AO2 RAE40 P0001
  • 150932Z AUTO 17013KT 1 1/2SM -RA BR BKN004 OVC016 08/08 A2881 RMK AO2 VIS 1V3 P0001 T00830078
  • 150854Z AUTO 17013KT 1SM -RA BR BKN004 BKN010 OVC014 08/08 A2883 RMK AO2 RAB14E23B33 SLP769 P0000 60002 T00830078 56043
  • 150831Z AUTO 18011KT 1 1/4SM BR OVC004 08/08 A2885 RMK AO2 RAB14E23 P0000 T00830078
  • 150754Z AUTO 18009KT 1/2SM FG VV003 08/08 A2887 RMK AO2 SLP781 T00830078

TAF KCAR
Valid from the 15 at 10:00 until the 16 at 06:00 UTC


151016Z 1510/1606 17011KT P6SM VCSH BKN025 OVC035
TEMPO 1510/1512 3SM -SHRA OVC020
FM151200 22013G24KT P6SM VCSH OVC020
FM151700 24020G36KT P6SM OVC025
FM152100 27022G37KT P6SM BKN028



MET'MAP, your aeronautical weather chart ! - Copyright ORBIFLY December 2007 - Disclaimer

ORBIFLY MET'MAP TEAM :

Programming & Development : Alexandra Zaïnal
Concept & original design : Baudouin d'Aumeries
Assistance for programming : Marc-Olivier Méhu
Technical & hardware support : Manuel Goepfert

Contact : metmap@orbifly.com




SOURCES & CREDITS :

   NOAA